Time;durP1;ratioP1;P1;durP2;ratioP2;P2;SDS_P1;SDS_P2;PMS_P1;PMS_P2;Temp;Humidity;BMP_temperature;BMP_pressure;BME280_temperature;BME280_humidity;BME280_pressure;Samples;Min_cycle;Max_cycle;Signal;HPM_P1;HPM_P2
2022/08/04 00:01:03;;;;;;;11.73;5.40;;;21.40;99.90;;;;;;5052313;28;20045;-67
2022/08/04 00:03:40;;;;;;;10.27;4.78;;;21.40;99.90;;;;;;5051658;28;20041;-67
2022/08/04 00:06:37;;;;;;;12.75;4.60;;;21.50;99.90;;;;;;5052055;28;20053;-67
2022/08/04 00:09:09;;;;;;;11.63;4.25;;;21.40;99.90;;;;;;5053403;28;20052;-67
2022/08/04 00:11:38;;;;;;;11.32;6.13;;;21.40;99.90;;;;;;5052961;28;20045;-67
2022/08/04 00:14:09;;;;;;;14.50;4.50;;;21.30;99.90;;;;;;5051739;28;20052;-67
2022/08/04 00:16:40;;;;;;;10.57;5.40;;;21.30;99.90;;;;;;5053352;28;20049;-67
2022/08/04 00:19:30;;;;;;;10.90;4.95;;;21.30;99.90;;;;;;5053227;28;20064;-67
2022/08/04 00:22:00;;;;;;;8.35;4.10;;;21.30;99.90;;;;;;5050959;28;20103;-67
2022/08/04 00:24:29;;;;;;;11.27;3.97;;;21.30;99.90;;;;;;5052561;28;20044;-67
2022/08/04 00:26:55;;;;;;;10.23;4.45;;;21.20;99.90;;;;;;5053093;28;20060;-67
2022/08/04 00:29:22;;;;;;;17.70;4.40;;;21.30;99.90;;;;;;5052708;28;20048;-67
2022/08/04 00:31:48;;;;;;;13.73;4.22;;;21.20;99.90;;;;;;5051794;28;20152;-67
2022/08/04 00:34:14;;;;;;;9.00;4.65;;;21.20;99.90;;;;;;5052435;28;20063;-67
2022/08/04 00:36:42;;;;;;;13.88;5.15;;;21.30;99.90;;;;;;5052728;28;20044;-67
2022/08/04 00:39:11;;;;;;;14.10;5.90;;;21.20;99.90;;;;;;5052528;28;20076;-65
2022/08/04 00:42:21;;;;;;;14.55;5.72;;;21.20;99.90;;;;;;5052665;28;20062;-66
2022/08/04 00:45:05;;;;;;;7.80;4.32;;;21.20;99.90;;;;;;5051277;28;20111;-66
2022/08/04 00:47:39;;;;;;;11.10;5.53;;;21.10;99.90;;;;;;5051458;28;20512;-66
2022/08/04 00:50:17;;;;;;;14.63;5.65;;;21.10;99.90;;;;;;5052483;28;20044;-67
2022/08/04 00:52:46;;;;;;;10.60;5.18;;;21.10;99.90;;;;;;5050992;28;20066;-66
2022/08/04 00:55:38;;;;;;;11.00;4.72;;;21.00;99.90;;;;;;5034191;28;20044;-66
2022/08/04 00:58:35;;;;;;;13.38;6.25;;;21.00;99.90;;;;;;5034432;28;20056;-66
2022/08/04 01:01:03;;;;;;;10.50;4.68;;;21.00;99.90;;;;;;5043340;28;20052;-66
2022/08/04 01:03:49;;;;;;;14.43;5.03;;;21.00;99.90;;;;;;5051525;28;20527;-66
2022/08/04 01:06:37;;;;;;;10.95;4.65;;;21.00;99.90;;;;;;5052064;28;20370;-67
2022/08/04 01:09:14;;;;;;;12.00;6.57;;;20.90;99.90;;;;;;5050409;28;20040;-66
2022/08/04 01:12:01;;;;;;;11.45;5.30;;;20.90;99.90;;;;;;5051473;28;20037;-66
2022/08/04 01:14:29;;;;;;;11.48;5.25;;;20.90;99.90;;;;;;5051586;28;20107;-66
2022/08/04 01:17:06;;;;;;;8.75;6.43;;;20.90;99.90;;;;;;5051603;28;20052;-66
2022/08/04 01:19:51;;;;;;;12.15;5.00;;;20.80;99.90;;;;;;5051634;28;20041;-66
2022/08/04 01:22:32;;;;;;;9.90;5.28;;;20.80;99.90;;;;;;5051082;28;20060;-67
2022/08/04 01:25:06;;;;;;;13.93;6.50;;;20.80;99.90;;;;;;5050204;28;20041;-66
2022/08/04 01:28:05;;;;;;;13.88;6.85;;;20.80;99.90;;;;;;5051556;28;20507;-66
2022/08/04 01:30:32;;;;;;;12.65;5.65;;;20.80;99.90;;;;;;5051237;28;20116;-66
2022/08/04 01:33:16;;;;;;;19.15;5.85;;;20.80;99.90;;;;;;5049906;28;20208;-67
2022/08/04 01:35:55;;;;;;;11.45;6.07;;;20.80;99.90;;;;;;5051844;28;20067;-66
2022/08/04 01:38:28;;;;;;;12.77;5.38;;;20.80;99.90;;;;;;5050731;28;20044;-66
2022/08/04 01:40:58;;;;;;;14.18;5.47;;;20.80;99.90;;;;;;5051148;28;20103;-66
2022/08/04 01:43:26;;;;;;;10.77;5.75;;;20.70;99.90;;;;;;5050459;28;20041;-66
2022/08/04 01:45:57;;;;;;;13.63;7.40;;;20.70;99.90;;;;;;5051292;28;20427;-66
2022/08/04 01:48:24;;;;;;;16.63;6.73;;;20.70;99.90;;;;;;5051080;28;20123;-66
2022/08/04 01:51:11;;;;;;;11.88;5.70;;;20.70;99.90;;;;;;5050978;28;20037;-66
2022/08/04 01:53:40;;;;;;;12.82;7.00;;;20.60;99.90;;;;;;5050292;28;20152;-66
2022/08/04 01:56:08;;;;;;;8.50;5.38;;;20.60;99.90;;;;;;5051132;28;20382;-67
2022/08/04 01:58:35;;;;;;;9.57;6.07;;;20.60;99.90;;;;;;5049633;28;20116;-67
2022/08/04 02:01:04;;;;;;;12.77;6.30;;;20.60;99.90;;;;;;5049392;28;20723;-67
2022/08/04 02:03:31;;;;;;;16.83;5.75;;;20.60;99.90;;;;;;5048591;28;20060;-67
2022/08/04 02:06:20;;;;;;;9.30;5.40;;;20.60;99.90;;;;;;5049427;28;20094;-67
2022/08/04 02:09:03;;;;;;;12.40;6.82;;;20.60;99.90;;;;;;5050470;28;20051;-67
2022/08/04 02:11:28;;;;;;;;;;;20.60;99.90;;;;;;5032790;28;20077;-67
2022/08/04 02:14:11;;;;;;;8.73;5.93;;;20.60;99.90;;;;;;5050220;28;20310;-67
2022/08/04 02:16:48;;;;;;;18.75;8.02;;;20.50;99.90;;;;;;5050034;28;20041;-67
2022/08/04 02:19:41;;;;;;;12.32;6.50;;;20.50;99.90;;;;;;5050334;28;20033;-67
2022/08/04 02:22:08;;;;;;;10.07;5.68;;;20.50;99.90;;;;;;5048659;28;20127;-67
2022/08/04 02:24:44;;;;;;;9.52;6.28;;;20.50;99.90;;;;;;5048751;28;20052;-67
2022/08/04 02:27:13;;;;;;;11.07;6.15;;;20.50;99.90;;;;;;5050234;28;20052;-67
2022/08/04 02:29:55;;;;;;;14.05;6.10;;;20.50;99.90;;;;;;5049833;28;20041;-67
2022/08/04 02:32:26;;;;;;;15.82;6.75;;;20.50;99.90;;;;;;5049485;28;20037;-67
2022/08/04 02:35:04;;;;;;;16.67;6.45;;;20.40;99.90;;;;;;5049945;28;20044;-67
2022/08/04 02:37:31;;;;;;;11.73;6.45;;;20.40;99.90;;;;;;5050033;28;20071;-67
2022/08/04 02:40:00;;;;;;;14.10;5.82;;;20.40;99.90;;;;;;5048364;28;20071;-67
2022/08/04 02:42:27;;;;;;;15.88;7.88;;;20.40;99.90;;;;;;5049615;28;20045;-67
2022/08/04 02:44:57;;;;;;;9.93;6.30;;;20.30;99.90;;;;;;5049352;28;20076;-67
2022/08/04 02:47:25;;;;;;;14.07;6.40;;;20.40;99.90;;;;;;5050993;28;20098;-67
2022/08/04 02:49:51;;;;;;;14.10;6.35;;;20.30;99.90;;;;;;5049971;28;20428;-67
2022/08/04 02:52:22;;;;;;;13.07;8.88;;;20.30;99.90;;;;;;5031447;28;20047;-67
2022/08/04 02:54:52;;;;;;;12.40;7.43;;;20.30;99.90;;;;;;5048315;28;20513;-66
2022/08/04 02:57:20;;;;;;;11.85;6.65;;;20.30;99.90;;;;;;5049680;28;20041;-66
2022/08/04 02:59:57;;;;;;;12.55;6.07;;;20.30;99.90;;;;;;5050030;28;20045;-67
2022/08/04 03:02:35;;;;;;;11.45;6.35;;;20.30;99.90;;;;;;5048133;28;20400;-67
2022/08/04 03:05:10;;;;;;;13.45;6.43;;;20.30;99.90;;;;;;5049874;28;20041;-66
2022/08/04 03:08:09;;;;;;;11.55;6.22;;;20.20;99.90;;;;;;5048410;28;20051;-66
2022/08/04 03:10:52;;;;;;;13.48;6.75;;;20.30;99.90;;;;;;5049665;28;20686;-66
2022/08/04 03:13:37;;;;;;;10.02;5.80;;;20.20;99.90;;;;;;5049379;28;20410;-66
2022/08/04 03:16:17;;;;;;;15.68;7.32;;;20.20;99.90;;;;;;5048644;28;20477;-66
2022/08/04 03:19:27;;;;;;;14.40;6.38;;;20.20;99.90;;;;;;5048549;28;20207;-66
2022/08/04 03:22:17;;;;;;;10.30;5.85;;;20.20;99.90;;;;;;5049584;28;20045;-66
2022/08/04 03:25:23;;;;;;;15.25;6.57;;;20.20;99.90;;;;;;5048597;28;20052;-67
2022/08/04 03:27:54;;;;;;;13.00;6.50;;;20.20;99.90;;;;;;5050635;28;20401;-67
2022/08/04 03:30:36;;;;;;;11.73;6.87;;;20.10;99.90;;;;;;5035709;28;20051;-67
2022/08/04 03:33:34;;;;;;;9.05;6.05;;;20.10;99.90;;;;;;5053260;28;20415;-67
2022/08/04 03:36:41;;;;;;;12.90;6.22;;;20.10;99.90;;;;;;5052347;28;20073;-67
2022/08/04 03:39:28;;;;;;;11.18;6.22;;;20.10;99.90;;;;;;5053599;28;20140;-67
2022/08/04 03:42:32;;;;;;;18.25;6.55;;;20.10;99.90;;;;;;5035581;28;20037;-68
2022/08/04 03:45:21;;;;;;;12.07;6.43;;;20.10;99.90;;;;;;5052085;28;20378;-68
2022/08/04 03:48:12;;;;;;;14.10;7.28;;;20.00;99.90;;;;;;5051257;28;20033;-68
2022/08/04 03:54:04;;;;;;;12.10;7.18;;;20.00;99.90;;;;;;5051337;28;20041;-68
2022/08/04 03:56:47;;;;;;;17.02;6.57;;;20.00;99.90;;;;;;5051213;28;20045;-68
2022/08/04 03:59:46;;;;;;;16.15;6.65;;;20.00;99.90;;;;;;5049496;28;20047;-68
2022/08/04 04:02:30;;;;;;;13.07;6.50;;;20.00;99.90;;;;;;5051934;28;20049;-68
2022/08/04 04:05:19;;;;;;;19.30;6.55;;;19.90;99.90;;;;;;5051143;28;20405;-68
2022/08/04 04:08:04;;;;;;;14.60;6.70;;;19.90;99.90;;;;;;5052087;28;20136;-68
2022/08/04 04:10:45;;;;;;;11.88;6.65;;;19.90;99.90;;;;;;5053064;28;20045;-68
2022/08/04 04:13:37;;;;;;;12.60;6.38;;;20.00;99.90;;;;;;5051633;28;20521;-68
2022/08/04 04:16:13;;;;;;;15.43;6.07;;;19.90;99.90;;;;;;5053089;28;20357;-68
2022/08/04 04:18:56;;;;;;;10.65;6.03;;;19.90;99.90;;;;;;5053119;28;20048;-68
2022/08/04 04:21:35;;;;;;;12.32;6.35;;;19.90;99.90;;;;;;5050308;28;20048;-66
2022/08/04 04:24:19;;;;;;;14.95;6.38;;;19.90;99.90;;;;;;5050181;28;20041;-67
2022/08/04 04:27:23;;;;;;;11.13;5.95;;;19.90;99.90;;;;;;5051731;28;20041;-67
2022/08/04 04:30:07;;;;;;;13.80;6.22;;;19.90;99.90;;;;;;5039175;28;20057;-67
2022/08/04 04:32:51;;;;;;;13.07;5.93;;;20.00;99.90;;;;;;5050970;28;20128;-67
2022/08/04 04:35:44;;;;;;;13.40;6.03;;;20.00;99.90;;;;;;5050592;28;20041;-67
2022/08/04 04:38:27;;;;;;;13.70;6.13;;;20.00;99.90;;;;;;5051317;28;20037;-67
2022/08/04 04:41:07;;;;;;;9.65;5.75;;;20.00;99.90;;;;;;5051315;28;20376;-67
2022/08/04 04:44:00;;;;;;;14.45;5.18;;;20.00;99.90;;;;;;5050719;28;20041;-67
2022/08/04 04:46:58;;;;;;;12.38;5.28;;;20.00;99.90;;;;;;5051160;28;20578;-67
2022/08/04 04:50:02;;;;;;;13.45;6.00;;;20.10;99.90;;;;;;5050655;28;20136;-67
2022/08/04 04:53:00;;;;;;;10.98;5.85;;;20.30;99.90;;;;;;5046481;28;20174;-67
2022/08/04 04:55:32;;;;;;;13.27;5.70;;;20.30;99.90;;;;;;5049787;28;20052;-67
2022/08/04 04:57:59;;;;;;;14.38;5.43;;;20.30;99.90;;;;;;5049924;28;20052;-67
2022/08/04 05:00:59;;;;;;;14.40;5.85;;;20.40;99.90;;;;;;5051544;28;20037;-67
2022/08/04 05:03:45;;;;;;;10.35;5.30;;;20.40;99.90;;;;;;5051485;28;20045;-68
2022/08/04 05:06:27;;;;;;;11.82;5.22;;;20.50;99.90;;;;;;5051217;28;20045;-67
2022/08/04 05:08:55;;;;;;;14.98;5.35;;;20.50;99.90;;;;;;5050801;28;20040;-67
2022/08/04 05:11:45;;;;;;;20.50;6.03;;;20.50;99.90;;;;;;5049367;28;20041;-68
2022/08/04 05:14:24;;;;;;;16.42;5.03;;;20.60;99.90;;;;;;5048878;28;20044;-68
2022/08/04 05:17:22;;;;;;;12.80;5.47;;;20.70;99.90;;;;;;5051098;28;20041;-67
2022/08/04 05:19:51;;;;;;;12.47;5.80;;;20.80;99.90;;;;;;5015079;28;1021563;-67
2022/08/04 05:22:41;;;;;;;16.92;5.68;;;21.00;99.90;;;;;;5050311;28;20056;-68
2022/08/04 05:25:11;;;;;;;11.48;5.75;;;21.20;99.90;;;;;;5051858;28;20040;-68
2022/08/04 05:27:44;;;;;;;11.88;4.97;;;21.30;99.90;;;;;;5051953;28;20037;-68
2022/08/04 05:30:11;;;;;;;14.38;5.13;;;21.30;99.90;;;;;;5051652;28;20051;-68
2022/08/04 05:32:47;;;;;;;8.98;5.10;;;21.40;99.90;;;;;;5051097;28;20485;-68
2022/08/04 05:35:20;;;;;;;8.63;4.82;;;21.50;99.90;;;;;;5051582;28;20489;-67
2022/08/04 05:37:48;;;;;;;14.98;4.97;;;21.50;99.90;;;;;;5051345;28;20508;-68
2022/08/04 05:40:17;;;;;;;10.27;5.35;;;21.50;99.90;;;;;;5051392;28;20120;-67
2022/08/04 05:42:43;;;;;;;19.75;5.85;;;21.50;99.90;;;;;;5049288;28;20124;-68
2022/08/04 05:45:09;;;;;;;12.50;5.45;;;21.50;99.90;;;;;;5049844;28;20151;-67
2022/08/04 05:47:36;;;;;;;10.65;5.55;;;21.50;99.90;;;;;;5049685;28;20041;-67
2022/08/04 05:50:04;;;;;;;10.00;5.38;;;21.50;99.90;;;;;;5050701;28;20397;-66
2022/08/04 05:52:31;;;;;;;13.15;5.82;;;21.60;99.90;;;;;;5049326;28;20081;-67
2022/08/04 05:54:57;;;;;;;17.25;5.50;;;21.70;99.90;;;;;;5050945;28;20033;-67
2022/08/04 05:57:24;;;;;;;12.82;6.00;;;21.70;99.90;;;;;;5049835;28;20338;-67
2022/08/04 05:59:52;;;;;;;17.88;6.32;;;21.70;99.90;;;;;;5049868;28;20029;-67
2022/08/04 06:02:19;;;;;;;12.77;6.20;;;21.70;99.90;;;;;;5032829;28;20072;-67
2022/08/04 06:04:48;;;;;;;16.98;6.90;;;21.70;99.90;;;;;;5032956;28;20048;-67
2022/08/04 06:07:14;;;;;;;11.63;5.95;;;21.60;99.90;;;;;;5050894;28;20454;-67
2022/08/04 06:09:40;;;;;;;12.27;6.22;;;21.60;99.90;;;;;;5049960;28;20150;-67
2022/08/04 06:12:12;;;;;;;13.48;6.65;;;21.60;99.90;;;;;;5049929;28;20048;-67
2022/08/04 06:14:41;;;;;;;12.30;6.60;;;21.70;99.90;;;;;;5049586;28;20075;-67
2022/08/04 06:17:10;;;;;;;11.55;6.68;;;21.70;99.90;;;;;;5049199;28;20045;-67
2022/08/04 06:19:38;;;;;;;21.30;6.97;;;21.70;99.90;;;;;;5049112;28;20041;-67
2022/08/04 06:22:07;;;;;;;13.95;6.80;;;21.90;99.90;;;;;;5050407;28;20493;-67
2022/08/04 06:24:36;;;;;;;14.82;7.20;;;21.90;99.90;;;;;;5050449;28;20098;-67
2022/08/04 06:27:03;;;;;;;16.20;6.82;;;22.00;99.90;;;;;;5050499;28;20167;-67
2022/08/04 06:29:40;;;;;;;14.85;7.47;;;22.10;99.90;;;;;;5050448;28;20444;-67
2022/08/04 06:32:23;;;;;;;15.80;7.93;;;22.10;99.90;;;;;;5050198;28;20067;-67
2022/08/04 06:34:52;;;;;;;12.02;7.18;;;22.20;99.90;;;;;;5048832;28;20049;-67
2022/08/04 06:37:18;;;;;;;16.02;7.35;;;22.30;99.90;;;;;;5048734;28;20040;-67
2022/08/04 06:39:44;;;;;;;12.95;7.93;;;22.30;99.90;;;;;;5050149;28;20040;-67
2022/08/04 06:42:10;;;;;;;17.02;7.43;;;22.40;99.90;;;;;;5049970;28;20076;-67
2022/08/04 06:44:38;;;;;;;14.25;7.53;;;22.50;99.90;;;;;;5049950;28;20064;-67
2022/08/04 06:47:04;;;;;;;18.08;7.22;;;22.60;99.90;;;;;;5050227;28;20041;-67
2022/08/04 06:49:31;;;;;;;19.20;7.75;;;22.70;99.90;;;;;;5048989;28;20049;-67
2022/08/04 06:51:57;;;;;;;13.45;7.68;;;22.70;99.90;;;;;;5050228;28;20045;-67
2022/08/04 06:54:23;;;;;;;13.73;6.93;;;22.70;99.90;;;;;;5049953;28;20047;-68
2022/08/04 06:56:52;;;;;;;17.13;6.95;;;22.80;99.90;;;;;;5048925;28;20480;-67
2022/08/04 06:59:19;;;;;;;13.73;6.68;;;22.90;99.90;;;;;;5048508;28;20075;-66
2022/08/04 07:01:45;;;;;;;15.30;8.35;;;22.90;99.90;;;;;;5049607;28;20382;-66
2022/08/04 07:04:11;;;;;;;14.15;6.30;;;22.90;99.90;;;;;;5049990;28;20045;-67
2022/08/04 07:06:37;;;;;;;14.93;6.78;;;23.00;99.90;;;;;;5048498;28;20076;-70
2022/08/04 07:09:05;;;;;;;15.18;6.97;;;23.10;99.90;;;;;;5048596;28;20083;-71
2022/08/04 07:11:33;;;;;;;12.95;6.10;;;23.00;99.90;;;;;;5049941;28;20045;-70
2022/08/04 07:13:59;;;;;;;12.55;6.70;;;23.10;99.90;;;;;;5051244;28;20098;-71
2022/08/04 07:16:25;;;;;;;16.33;6.72;;;23.10;99.90;;;;;;5036308;28;20041;-71
2022/08/04 07:18:50;;;;;;;14.15;6.32;;;23.10;99.90;;;;;;5057939;28;20589;-71
2022/08/04 07:21:22;;;;;;;11.23;6.55;;;23.20;99.90;;;;;;5055036;28;20045;-71
2022/08/04 07:23:48;;;;;;;14.50;6.90;;;23.30;99.90;;;;;;5049561;28;20126;-73
2022/08/04 07:26:16;;;;;;;14.40;6.13;;;23.40;99.90;;;;;;5051103;28;20053;-72
2022/08/04 07:28:41;;;;;;;10.63;6.30;;;23.30;99.90;;;;;;5053962;28;20369;-72
2022/08/04 07:31:10;;;;;;;13.50;6.03;;;23.40;99.90;;;;;;5052471;28;20045;-72
2022/08/04 07:33:36;;;;;;;11.95;5.88;;;23.50;99.90;;;;;;5035036;28;20048;-73
2022/08/04 07:36:02;;;;;;;12.18;5.60;;;23.60;99.90;;;;;;5051965;28;20048;-73
2022/08/04 07:38:28;;;;;;;13.07;5.82;;;23.70;99.90;;;;;;5054368;28;20473;-72
2022/08/04 07:40:54;;;;;;;16.15;5.85;;;23.70;99.90;;;;;;5055235;28;20045;-72
2022/08/04 07:43:21;;;;;;;11.90;4.85;;;23.80;99.90;;;;;;5054339;28;20071;-71
2022/08/04 07:45:47;;;;;;;9.15;4.88;;;23.90;99.90;;;;;;5055268;28;20060;-71
2022/08/04 07:48:14;;;;;;;10.93;5.07;;;23.90;99.90;;;;;;5055625;28;20049;-71
2022/08/04 07:50:42;;;;;;;10.55;5.35;;;23.90;99.90;;;;;;5055933;28;20505;-71
2022/08/04 07:53:08;;;;;;;15.23;4.25;;;24.00;99.90;;;;;;5038332;28;20469;-71
2022/08/04 07:55:34;;;;;;;8.30;4.00;;;24.00;99.90;;;;;;5054269;28;20033;-71
2022/08/04 07:57:59;;;;;;;12.68;4.70;;;24.10;99.90;;;;;;5053794;28;20033;-72
2022/08/04 08:00:25;;;;;;;12.32;4.63;;;24.20;99.90;;;;;;5054593;28;20040;-71
2022/08/04 08:02:53;;;;;;;12.85;5.68;;;24.20;99.90;;;;;;5060354;28;20407;-71
2022/08/04 08:05:20;;;;;;;13.02;4.53;;;24.30;99.90;;;;;;5074423;28;20045;-71
2022/08/04 08:07:49;;;;;;;13.52;5.13;;;24.50;99.90;;;;;;5074793;28;20047;-71
2022/08/04 08:10:15;;;;;;;10.10;4.78;;;24.50;99.90;;;;;;5074887;28;20575;-71
2022/08/04 08:12:42;;;;;;;7.32;4.05;;;24.50;99.90;;;;;;5073773;28;20044;-71
2022/08/04 08:15:09;;;;;;;11.98;4.40;;;24.50;99.90;;;;;;5076363;28;20810;-71
2022/08/04 08:17:35;;;;;;;18.17;4.57;;;24.50;99.90;;;;;;5078565;28;20116;-71
2022/08/04 08:20:01;;;;;;;9.25;4.25;;;24.50;99.90;;;;;;5078946;28;20418;-71
2022/08/04 08:22:27;;;;;;;17.50;4.90;;;24.60;99.90;;;;;;5076659;28;20036;-71
2022/08/04 08:24:53;;;;;;;11.13;3.75;;;24.60;99.90;;;;;;5079043;28;20059;-73
2022/08/04 08:27:19;;;;;;;12.18;4.72;;;24.70;99.90;;;;;;5068049;28;20048;-73
2022/08/04 08:29:46;;;;;;;14.75;4.03;;;24.80;99.90;;;;;;5079885;28;20048;-72
2022/08/04 08:32:12;;;;;;;13.07;4.28;;;24.80;99.90;;;;;;5077980;28;20037;-72
2022/08/04 08:34:39;;;;;;;18.02;3.80;;;25.00;99.90;;;;;;5077620;28;20633;-72
2022/08/04 08:37:14;;;;;;;9.77;3.40;;;25.10;99.90;;;;;;5076761;28;20036;-72
2022/08/04 08:39:49;;;;;;;12.07;3.70;;;25.20;99.90;;;;;;5078000;28;20094;-72
2022/08/04 08:42:39;;;;;;;12.57;3.53;;;25.30;99.90;;;;;;5059833;28;20036;-72
2022/08/04 08:45:23;;;;;;;8.27;3.55;;;25.40;99.90;;;;;;5076912;28;20052;-72
2022/08/04 08:48:01;;;;;;;9.73;3.13;;;25.50;99.90;;;;;;5076914;28;20067;-72
2022/08/04 08:50:38;;;;;;;7.50;3.00;;;25.60;99.90;;;;;;5077121;28;20045;-72
2022/08/04 08:53:25;;;;;;;9.68;3.15;;;25.60;99.90;;;;;;5076677;28;20365;-72
2022/08/04 08:55:57;;;;;;;14.48;3.15;;;25.70;99.90;;;;;;5077071;28;20036;-71
2022/08/04 08:58:46;;;;;;;10.40;3.25;;;25.80;99.90;;;;;;5060621;28;20047;-72
2022/08/04 09:01:39;;;;;;;8.73;3.30;;;25.90;99.90;;;;;;5076272;28;20060;-72
2022/08/04 09:04:22;;;;;;;13.73;3.50;;;26.00;99.90;;;;;;5076670;28;20116;-72
2022/08/04 09:07:12;;;;;;;13.63;3.30;;;26.10;99.90;;;;;;5076837;28;20055;-72
2022/08/04 09:09:52;;;;;;;12.40;2.97;;;26.10;99.90;;;;;;5078061;28;20766;-72
2022/08/04 09:12:32;;;;;;;10.05;3.10;;;26.20;99.90;;;;;;5076571;28;20131;-72
2022/08/04 09:15:12;;;;;;;8.55;2.95;;;26.30;99.90;;;;;;5060237;28;20028;-73
2022/08/04 09:17:59;;;;;;;16.67;3.50;;;26.40;99.90;;;;;;5076665;28;20049;-73
2022/08/04 09:20:47;;;;;;;7.93;3.03;;;26.40;99.90;;;;;;5075559;28;20123;-72
2022/08/04 09:23:27;;;;;;;6.63;2.92;;;26.40;99.90;;;;;;5059166;28;20109;-72
2022/08/04 09:26:14;;;;;;;12.20;3.65;;;26.50;99.90;;;;;;5058560;28;20036;-72
2022/08/04 09:29:00;;;;;;;9.85;2.53;;;26.50;99.90;;;;;;5075787;28;20198;-72
2022/08/04 09:31:52;;;;;;;8.85;3.08;;;26.70;99.90;;;;;;5059695;28;20044;-71
2022/08/04 09:34:50;;;;;;;12.90;3.08;;;26.90;99.90;;;;;;5082188;28;20056;-72
2022/08/04 09:37:24;;;;;;;9.05;3.00;;;26.90;99.90;;;;;;5058825;28;20132;-73
2022/08/04 09:40:09;;;;;;;8.10;2.92;;;27.00;99.90;;;;;;5075517;28;20040;-73
2022/08/04 09:42:43;;;;;;;9.05;2.95;;;27.10;99.90;;;;;;5058501;28;20106;-73
2022/08/04 09:45:18;;;;;;;8.38;3.30;;;27.20;99.90;;;;;;5076556;28;20037;-73
2022/08/04 09:47:58;;;;;;;9.93;3.17;;;27.30;99.90;;;;;;5076245;28;20036;-72
2022/08/04 09:50:37;;;;;;;9.45;3.05;;;27.50;99.90;;;;;;5059043;28;20064;-72
2022/08/04 09:53:19;;;;;;;14.93;3.17;;;27.60;99.90;;;;;;5076070;28;20036;-71
2022/08/04 09:55:47;;;;;;;9.23;3.53;;;27.60;99.90;;;;;;5058520;28;20044;-72
2022/08/04 09:58:32;;;;;;;11.60;3.30;;;27.50;99.90;;;;;;5075911;28;20044;-73
2022/08/04 10:01:05;;;;;;;13.32;3.50;;;27.40;99.90;;;;;;5074961;28;20044;-72
2022/08/04 10:03:35;;;;;;;7.65;2.97;;;27.40;99.90;;;;;;5076876;28;20044;-74
2022/08/04 10:06:28;;;;;;;12.02;3.90;;;27.40;99.90;;;;;;5074964;28;20047;-72
2022/08/04 10:08:53;;;;;;;8.25;2.97;;;27.30;99.90;;;;;;5072215;28;20052;-71
2022/08/04 10:11:50;;;;;;;8.43;3.13;;;27.40;99.90;;;;;;5072510;28;20416;-71
2022/08/04 10:14:19;;;;;;;10.35;3.42;;;27.30;99.90;;;;;;5072412;28;20040;-72
2022/08/04 10:16:50;;;;;;;7.32;3.30;;;27.40;99.90;;;;;;5073580;28;20155;-72
2022/08/04 10:19:37;;;;;;;15.43;3.85;;;27.50;99.90;;;;;;5072580;28;20041;-72
2022/08/04 10:22:08;;;;;;;11.38;3.08;;;27.60;99.90;;;;;;5055278;28;20141;-72
2022/08/04 10:24:53;;;;;;;8.98;3.40;;;27.70;99.90;;;;;;5073503;28;20048;-72
2022/08/04 10:27:34;;;;;;;10.73;3.83;;;27.70;99.90;;;;;;5069196;28;20574;-72
2022/08/04 10:30:10;;;;;;;9.68;3.20;;;27.70;99.90;;;;;;5070075;28;20523;-67
2022/08/04 10:32:52;;;;;;;10.48;3.55;;;27.70;99.90;;;;;;5069676;28;20044;-67
2022/08/04 10:35:23;;;;;;;7.82;3.63;;;27.80;99.90;;;;;;5064126;28;20047;-67
2022/08/04 10:38:00;;;;;;;9.13;3.10;;;27.80;99.90;;;;;;5056440;28;20080;-67
2022/08/04 10:40:35;;;;;;;8.52;3.13;;;27.90;99.90;;;;;;5056764;28;20090;-67
2022/08/04 10:43:28;;;;;;;5.65;3.25;;;27.80;99.90;;;;;;5059619;28;20053;-68
2022/08/04 10:46:18;;;;;;;8.63;3.80;;;27.70;99.90;;;;;;5061572;28;20070;-67
2022/08/04 10:49:03;;;;;;;8.60;3.50;;;27.70;99.90;;;;;;5060468;28;20056;-68
2022/08/04 10:51:47;;;;;;;9.57;3.75;;;27.70;99.90;;;;;;5059779;28;20140;-69
2022/08/04 10:54:44;;;;;;;15.63;4.28;;;27.80;99.90;;;;;;5059639;28;20036;-68
2022/08/04 10:57:46;;;;;;;10.38;3.83;;;27.90;99.90;;;;;;5060019;28;20119;-68
2022/08/04 11:00:15;;;;;;;11.15;3.65;;;27.90;99.90;;;;;;5049545;28;20044;-70
2022/08/04 11:02:57;;;;;;;11.70;3.38;;;27.80;99.90;;;;;;5049595;28;20041;-68
2022/08/04 11:05:29;;;;;;;;;;;27.90;99.90;;;;;;5050201;28;20076;-68
2022/08/04 11:08:01;;;;;;;8.80;2.97;;;27.90;99.90;;;;;;5050176;28;19962;-68
2022/08/04 11:10:31;;;;;;;9.10;3.03;;;27.90;99.90;;;;;;5050053;28;20512;-68
2022/08/04 11:13:03;;;;;;;7.97;2.75;;;27.80;99.90;;;;;;5049453;28;20513;-68
2022/08/04 11:15:50;;;;;;;10.65;2.55;;;27.70;99.90;;;;;;5048393;28;20045;-68
2022/08/04 11:18:35;;;;;;;10.88;2.65;;;27.70;99.90;;;;;;5050026;28;20041;-68
2022/08/04 11:21:10;;;;;;;10.55;2.70;;;27.70;99.90;;;;;;5049686;28;20079;-69
2022/08/04 11:23:38;;;;;;;9.15;2.28;;;27.70;99.90;;;;;;5049574;28;20060;-68
2022/08/04 11:26:28;;;;;;;4.63;1.85;;;27.70;99.90;;;;;;5049676;28;20056;-67
2022/08/04 11:29:17;;;;;;;5.75;1.83;;;27.70;99.90;;;;;;5050181;28;20060;-69
2022/08/04 11:31:48;;;;;;;5.55;1.70;;;27.90;99.90;;;;;;5048386;28;20063;-68
2022/08/04 11:34:22;;;;;;;6.50;1.80;;;27.90;99.90;;;;;;5031670;28;20511;-67
2022/08/04 11:37:13;;;;;;;5.47;2.00;;;27.80;99.90;;;;;;5049613;28;20139;-67
2022/08/04 11:39:47;;;;;;;8.13;2.00;;;27.80;99.90;;;;;;5049654;28;20519;-67
2022/08/04 11:42:27;;;;;;;5.65;1.50;;;27.70;99.90;;;;;;5047934;28;20128;-67
2022/08/04 11:45:03;;;;;;;9.88;1.90;;;27.70;99.90;;;;;;5048196;28;20540;-67
2022/08/04 11:47:38;;;;;;;7.57;1.45;;;27.60;99.90;;;;;;5049907;28;20146;-67
2022/08/04 11:50:37;;;;;;;4.85;1.75;;;27.60;99.90;;;;;;5053425;28;20053;-68
2022/08/04 11:53:04;;;;;;;9.55;2.00;;;27.50;99.90;;;;;;5053996;28;20044;-68
2022/08/04 11:55:31;;;;;;;7.45;2.40;;;27.50;99.90;;;;;;5052328;28;20112;-66
2022/08/04 11:57:57;;;;;;;7.15;1.60;;;27.50;99.90;;;;;;5053565;28;20037;-67
2022/08/04 12:00:26;;;;;;;9.73;1.77;;;27.50;99.90;;;;;;5052326;28;20052;-67
2022/08/04 12:02:55;;;;;;;6.47;2.05;;;27.40;99.90;;;;;;5052715;28;20484;-67
2022/08/04 12:05:37;;;;;;;8.05;2.40;;;27.40;99.90;;;;;;5051958;28;20072;-67
2022/08/04 12:08:32;;;;;;;11.57;2.28;;;27.40;99.90;;;;;;5053281;28;20068;-67
2022/08/04 12:11:40;;;;;;;7.30;2.20;;;27.30;99.90;;;;;;5053076;28;20373;-67
2022/08/04 12:14:13;;;;;;;7.32;2.05;;;27.30;99.90;;;;;;5052639;28;20083;-67
2022/08/04 12:17:02;;;;;;;6.07;2.00;;;27.20;99.90;;;;;;5052826;28;20041;-67
2022/08/04 12:19:35;;;;;;;10.68;1.80;;;27.20;99.90;;;;;;5072344;28;20045;-67
2022/08/04 12:22:07;;;;;;;5.80;1.60;;;27.10;99.90;;;;;;5072722;28;20044;-69
2022/08/04 12:24:36;;;;;;;;;;;27.10;99.90;;;;;;5073000;28;20335;-67
2022/08/04 12:27:16;;;;;;;6.43;1.33;;;27.00;99.90;;;;;;5072871;28;20360;-67
2022/08/04 12:29:44;;;;;;;5.07;1.88;;;26.90;99.90;;;;;;5056069;28;20051;-67
2022/08/04 12:32:17;;;;;;;11.05;1.65;;;26.80;99.90;;;;;;5052472;28;20079;-67
2022/08/04 12:35:19;;;;;;;4.63;1.80;;;26.70;99.90;;;;;;5051506;28;20152;-67
2022/08/04 12:38:03;;;;;;;6.78;2.25;;;26.70;99.90;;;;;;5051451;28;20041;-67
2022/08/04 12:40:48;;;;;;;7.13;2.03;;;26.50;99.90;;;;;;5052416;28;20120;-67
2022/08/04 12:43:16;;;;;;;3.97;1.65;;;26.50;99.90;;;;;;5050659;28;20048;-68
2022/08/04 12:45:47;;;;;;;5.78;1.90;;;26.40;99.90;;;;;;5051209;28;20530;-67
2022/08/04 12:48:13;;;;;;;3.90;1.50;;;26.30;99.90;;;;;;5052495;28;20127;-68
2022/08/04 12:50:40;;;;;;;5.65;1.33;;;26.10;99.90;;;;;;5051958;28;20198;-69
2022/08/04 12:53:17;;;;;;;10.63;1.98;;;26.00;99.90;;;;;;5050564;28;20099;-69
2022/08/04 12:55:48;;;;;;;5.53;1.77;;;25.90;99.90;;;;;;5052630;28;20551;-69
2022/08/04 12:58:17;;;;;;;4.80;1.85;;;25.80;99.90;;;;;;5054601;28;20033;-69
2022/08/04 13:00:46;;;;;;;3.00;1.98;;;25.70;99.90;;;;;;5059135;28;20056;-69
2022/08/04 13:03:15;;;;;;;2.25;2.05;;;25.70;99.90;;;;;;5052212;28;20190;-69
2022/08/04 13:05:42;;;;;;;6.35;1.70;;;25.70;99.90;;;;;;5050959;28;20045;-69
2022/08/04 13:08:10;;;;;;;7.03;2.05;;;25.60;99.90;;;;;;5050630;28;20446;-69
2022/08/04 13:10:41;;;;;;;5.22;2.08;;;25.50;99.90;;;;;;5050522;28;20040;-69
2022/08/04 13:13:14;;;;;;;6.53;2.28;;;25.20;99.90;;;;;;5051647;28;20036;-69
2022/08/04 13:15:39;;;;;;;4.95;2.00;;;25.00;99.90;;;;;;5052070;28;20076;-69
2022/08/04 13:18:10;;;;;;;3.72;1.73;;;24.90;99.90;;;;;;5051673;28;20075;-69
2022/08/04 13:20:38;;;;;;;3.10;2.20;;;24.90;99.90;;;;;;5051808;28;20037;-69
2022/08/04 13:23:07;;;;;;;4.95;1.98;;;24.90;99.90;;;;;;5050230;28;20358;-69
2022/08/04 13:25:34;;;;;;;7.75;1.98;;;25.00;99.90;;;;;;5050586;28;20066;-68
2022/08/04 13:28:02;;;;;;;6.15;1.63;;;25.20;99.90;;;;;;5051519;28;20493;-68
2022/08/04 13:30:30;;;;;;;3.42;1.80;;;25.30;99.90;;;;;;5050243;28;20040;-68